createdAt,value
2022-10-20T00:01:14.611Z,14.94
2022-10-20T00:03:42.940Z,15.01
2022-10-20T00:06:13.761Z,15.06
2022-10-20T00:08:43.608Z,15.04
2022-10-20T00:11:13.767Z,15.09
2022-10-20T00:13:44.894Z,15.11
2022-10-20T00:16:13.352Z,15.11
2022-10-20T00:18:42.029Z,15.14
2022-10-20T00:21:11.785Z,15.16
2022-10-20T00:23:39.837Z,15.22
2022-10-20T00:26:12.678Z,15.22
2022-10-20T00:28:42.228Z,15.23
2022-10-20T00:31:11.831Z,15.26
2022-10-20T00:33:40.380Z,15.34
2022-10-20T00:36:10.294Z,15.43
2022-10-20T00:38:38.427Z,15.47
2022-10-20T00:41:06.985Z,15.50
2022-10-20T00:43:49.530Z,15.49
2022-10-20T00:46:21.395Z,15.58
2022-10-20T00:48:53.765Z,15.56
2022-10-20T00:51:26.580Z,15.57
2022-10-20T00:54:00.378Z,15.56
2022-10-20T00:56:28.733Z,15.59
2022-10-20T00:58:58.274Z,15.65
2022-10-20T01:01:27.063Z,15.69
2022-10-20T01:04:14.029Z,15.75
2022-10-20T01:06:42.225Z,15.75
2022-10-20T01:09:10.564Z,15.78
2022-10-20T01:11:48.442Z,15.76
2022-10-20T01:14:32.850Z,15.82
2022-10-20T01:17:09.043Z,15.85
2022-10-20T01:20:06.789Z,15.81
2022-10-20T01:22:53.720Z,15.83
2022-10-20T01:25:32.599Z,15.83
2022-10-20T01:28:07.490Z,15.87
2022-10-20T01:30:40.581Z,15.88
2022-10-20T01:33:21.359Z,15.94
2022-10-20T01:36:01.063Z,15.91
2022-10-20T01:38:35.516Z,15.91
2022-10-20T01:41:11.625Z,15.87
2022-10-20T01:43:44.607Z,15.90
2022-10-20T01:46:16.056Z,15.87
2022-10-20T01:48:45.220Z,15.84
2022-10-20T01:51:13.333Z,15.82
2022-10-20T01:53:41.481Z,15.79
2022-10-20T01:56:19.494Z,15.80
2022-10-20T01:59:22.123Z,15.77
2022-10-20T02:02:06.973Z,15.73
2022-10-20T02:04:48.842Z,15.74
2022-10-20T02:07:24.873Z,15.70
2022-10-20T02:09:57.012Z,15.71
2022-10-20T02:12:29.383Z,15.69
2022-10-20T02:14:59.681Z,15.66
2022-10-20T02:17:30.253Z,15.64
2022-10-20T02:19:59.529Z,15.62
2022-10-20T02:22:28.271Z,15.59
2022-10-20T02:24:56.420Z,15.52
2022-10-20T02:27:29.085Z,15.48
2022-10-20T02:30:02.414Z,15.44
2022-10-20T02:32:33.601Z,15.42
2022-10-20T02:35:06.698Z,15.36
2022-10-20T02:37:35.766Z,15.30
2022-10-20T02:40:05.095Z,15.30
2022-10-20T02:42:33.337Z,15.28
2022-10-20T02:45:04.177Z,15.24
2022-10-20T02:47:32.277Z,15.26
2022-10-20T02:50:01.722Z,15.27
2022-10-20T02:52:30.017Z,15.26
2022-10-20T02:54:58.139Z,15.29
2022-10-20T02:57:26.459Z,15.30
2022-10-20T02:59:54.682Z,15.29
2022-10-20T03:02:24.379Z,15.28
2022-10-20T03:04:52.476Z,15.30
2022-10-20T03:07:20.530Z,15.29
2022-10-20T03:09:49.195Z,15.27
2022-10-20T03:12:17.258Z,15.26
2022-10-20T03:14:45.533Z,15.25
2022-10-20T03:17:13.593Z,15.23
2022-10-20T03:19:43.064Z,15.22
2022-10-20T03:22:12.175Z,15.24
2022-10-20T03:24:40.316Z,15.25
2022-10-20T03:27:08.723Z,15.22
2022-10-20T03:29:36.887Z,15.20
2022-10-20T03:32:05.191Z,15.18
2022-10-20T03:34:33.348Z,15.17
2022-10-20T03:37:02.923Z,15.17
2022-10-20T03:39:49.717Z,15.15
2022-10-20T03:42:17.810Z,15.13
2022-10-20T03:44:46.214Z,15.12
2022-10-20T03:47:14.740Z,15.09
2022-10-20T03:49:42.916Z,15.10
2022-10-20T03:52:12.423Z,15.09
2022-10-20T03:54:41.109Z,15.03
2022-10-20T03:57:09.239Z,15.04
2022-10-20T03:59:37.328Z,14.98
2022-10-20T04:02:05.548Z,15.02
2022-10-20T04:04:33.688Z,15.03
2022-10-20T04:07:01.683Z,15.00
2022-10-20T04:09:31.281Z,15.02
2022-10-20T04:11:59.901Z,15.04
2022-10-20T04:14:28.195Z,15.03
2022-10-20T04:16:56.326Z,15.02
2022-10-20T04:19:24.598Z,14.98
2022-10-20T04:21:52.776Z,14.96
2022-10-20T04:24:20.911Z,14.95
2022-10-20T04:29:24.625Z,14.89
2022-10-20T04:31:52.958Z,14.92
2022-10-20T04:34:20.988Z,14.92
2022-10-20T04:36:49.160Z,14.91
2022-10-20T04:39:17.416Z,14.90
2022-10-20T04:41:45.490Z,14.92
2022-10-20T04:44:15.208Z,14.90
2022-10-20T04:46:43.500Z,14.89
2022-10-20T04:49:12.749Z,14.92
2022-10-20T04:51:40.843Z,14.89
2022-10-20T04:54:09.038Z,14.90
2022-10-20T04:56:37.104Z,14.90
2022-10-20T04:59:09.548Z,14.89
2022-10-20T05:01:42.527Z,14.88
2022-10-20T05:04:11.740Z,14.90
2022-10-20T05:06:40.131Z,14.91
2022-10-20T05:09:08.956Z,14.89
2022-10-20T05:11:38.202Z,14.89
2022-10-20T05:14:07.719Z,14.91
2022-10-20T05:16:36.134Z,14.87
2022-10-20T05:19:05.729Z,14.87
2022-10-20T05:21:35.121Z,14.90
2022-10-20T05:24:05.913Z,14.92
2022-10-20T05:26:37.567Z,14.94
2022-10-20T05:29:08.117Z,14.97
2022-10-20T05:31:39.001Z,14.97
2022-10-20T05:34:27.285Z,14.99
2022-10-20T05:36:55.719Z,14.96
2022-10-20T05:39:23.778Z,14.96
2022-10-20T05:41:51.890Z,14.96
2022-10-20T05:44:20.081Z,14.95
2022-10-20T05:46:48.158Z,15.00
2022-10-20T05:49:18.260Z,15.01
2022-10-20T05:51:47.525Z,15.01
2022-10-20T05:54:16.171Z,15.01
2022-10-20T05:56:44.644Z,15.01
2022-10-20T05:59:12.962Z,15.07
2022-10-20T06:01:48.318Z,15.10
2022-10-20T06:04:23.577Z,15.07
2022-10-20T06:06:52.548Z,15.09
2022-10-20T06:09:21.417Z,15.08
2022-10-20T06:11:50.259Z,15.10
2022-10-20T06:14:19.531Z,15.15
2022-10-20T06:16:47.617Z,15.16
2022-10-20T06:19:15.808Z,15.25
2022-10-20T06:21:45.294Z,15.30
2022-10-20T06:24:14.015Z,15.36
2022-10-20T06:26:45.531Z,15.35
2022-10-20T06:29:16.155Z,15.37
2022-10-20T06:31:45.967Z,15.47
2022-10-20T06:34:16.060Z,15.51
2022-10-20T06:36:46.351Z,15.55
2022-10-20T06:39:17.655Z,15.64
2022-10-20T06:41:48.617Z,15.71
2022-10-20T06:44:16.657Z,15.73
2022-10-20T06:46:45.444Z,15.77
2022-10-20T06:49:13.809Z,15.82
2022-10-20T06:51:42.584Z,15.89
2022-10-20T06:54:12.108Z,15.92
2022-10-20T06:56:41.361Z,15.98
2022-10-20T06:59:10.527Z,15.98
2022-10-20T07:01:40.403Z,16.00
2022-10-20T07:04:11.629Z,16.07
2022-10-20T07:06:42.144Z,16.15
2022-10-20T07:09:15.581Z,16.22
2022-10-20T07:11:44.484Z,16.35
2022-10-20T07:14:14.401Z,16.34
2022-10-20T07:16:42.640Z,16.36
2022-10-20T07:19:11.065Z,16.37
2022-10-20T07:21:41.578Z,16.45
2022-10-20T07:24:14.528Z,16.47
2022-10-20T07:26:43.245Z,16.51
2022-10-20T07:29:13.094Z,16.59
2022-10-20T07:31:43.496Z,16.65
2022-10-20T07:34:25.184Z,16.78
2022-10-20T07:36:54.633Z,16.84
2022-10-20T07:39:24.499Z,16.79
2022-10-20T07:41:53.076Z,16.85
2022-10-20T07:44:21.529Z,16.91
2022-10-20T07:46:49.599Z,16.98
2022-10-20T07:52:06.219Z,16.99
2022-10-20T07:54:35.667Z,17.05
2022-10-20T07:57:03.896Z,17.20
2022-10-20T07:59:32.074Z,17.31
2022-10-20T08:02:00.953Z,17.30
2022-10-20T08:04:31.635Z,17.50
2022-10-20T08:07:00.756Z,17.47
2022-10-20T08:09:28.950Z,17.48
2022-10-20T08:11:58.590Z,17.57
2022-10-20T08:14:31.882Z,17.59
2022-10-20T08:17:00.911Z,17.63
2022-10-20T08:19:41.422Z,17.73
2022-10-20T08:22:09.527Z,17.76
2022-10-20T08:24:37.991Z,17.87
2022-10-20T08:27:07.500Z,17.95
2022-10-20T08:29:35.706Z,18.00
2022-10-20T08:32:04.003Z,17.98
2022-10-20T08:34:32.426Z,18.06
2022-10-20T08:37:01.098Z,18.09
2022-10-20T08:39:29.174Z,18.18
2022-10-20T08:42:14.424Z,18.20
2022-10-20T08:44:47.317Z,18.38
2022-10-20T08:47:24.166Z,18.38
2022-10-20T08:49:54.239Z,18.57
2022-10-20T08:52:24.960Z,18.58
2022-10-20T08:54:56.807Z,18.46
2022-10-20T08:57:27.228Z,18.52
2022-10-20T09:00:08.093Z,18.51
2022-10-20T09:02:37.219Z,18.70
2022-10-20T09:05:08.280Z,18.79
2022-10-20T09:07:38.350Z,18.79
2022-10-20T09:10:19.317Z,18.73
2022-10-20T09:12:49.775Z,18.75
2022-10-20T09:15:21.162Z,18.83
2022-10-20T09:17:53.098Z,18.85
2022-10-20T09:20:25.625Z,18.98
2022-10-20T09:22:53.815Z,19.07
2022-10-20T09:25:24.147Z,19.09
2022-10-20T09:27:53.682Z,19.22
2022-10-20T09:30:26.394Z,19.30
2022-10-20T09:32:54.642Z,19.32
2022-10-20T09:35:28.838Z,19.34
2022-10-20T09:38:19.141Z,19.31
2022-10-20T09:40:58.755Z,19.27
2022-10-20T09:43:28.609Z,19.40
2022-10-20T09:46:06.463Z,19.49
2022-10-20T09:48:37.937Z,19.57
2022-10-20T09:51:08.662Z,19.64
2022-10-20T09:53:42.724Z,19.82
2022-10-20T09:56:11.140Z,19.86
2022-10-20T09:58:42.191Z,19.79
2022-10-20T10:01:18.022Z,19.86
2022-10-20T10:03:47.941Z,19.93
2022-10-20T10:06:30.018Z,20.02
2022-10-20T10:09:00.076Z,20.03
2022-10-20T10:11:32.886Z,20.24
2022-10-20T10:14:01.322Z,20.26
2022-10-20T10:16:41.723Z,20.22
2022-10-20T10:19:18.578Z,20.24
2022-10-20T10:21:49.758Z,20.16
2022-10-20T10:24:41.988Z,20.16
2022-10-20T10:27:25.420Z,20.26
2022-10-20T10:29:53.701Z,20.14
2022-10-20T10:32:27.659Z,20.21
2022-10-20T10:35:23.887Z,20.27
2022-10-20T10:37:55.685Z,20.50
2022-10-20T10:40:30.260Z,20.53
2022-10-20T10:43:29.542Z,20.47
2022-10-20T10:46:01.388Z,20.39
2022-10-20T10:48:58.747Z,20.34
2022-10-20T10:51:42.690Z,20.36
2022-10-20T10:54:24.371Z,20.52
2022-10-20T10:56:56.020Z,20.51
2022-10-20T10:59:28.720Z,20.45
2022-10-20T11:02:20.837Z,20.51
2022-10-20T11:05:21.676Z,20.34
2022-10-20T11:07:56.905Z,20.27
2022-10-20T11:10:33.266Z,20.29
2022-10-20T11:13:13.975Z,20.35
2022-10-20T11:15:56.246Z,20.49
2022-10-20T11:18:42.782Z,20.42
2022-10-20T11:21:23.771Z,20.43
2022-10-20T11:24:07.352Z,20.33
2022-10-20T11:26:37.787Z,20.37
2022-10-20T11:29:10.370Z,20.47
2022-10-20T11:31:43.608Z,20.54
2022-10-20T11:34:15.808Z,20.52
2022-10-20T11:36:49.048Z,20.47
2022-10-20T11:39:26.439Z,20.50
2022-10-20T11:42:02.289Z,20.60
2022-10-20T11:44:38.372Z,20.72
2022-10-20T11:47:11.511Z,20.71
2022-10-20T11:49:41.525Z,20.78
2022-10-20T11:52:38.134Z,20.73
2022-10-20T11:55:41.659Z,20.74
2022-10-20T11:58:32.653Z,20.71
2022-10-20T12:01:24.016Z,20.71
2022-10-20T12:04:24.306Z,20.59
2022-10-20T12:07:18.369Z,20.55
2022-10-20T12:10:01.309Z,20.59
2022-10-20T12:12:35.562Z,20.59
2022-10-20T12:15:21.515Z,20.49
2022-10-20T12:17:51.252Z,20.64
2022-10-20T12:20:51.697Z,20.69
2022-10-20T12:24:03.130Z,20.62
2022-10-20T12:27:17.866Z,20.70
2022-10-20T12:29:54.657Z,20.66
2022-10-20T12:32:58.518Z,20.64
2022-10-20T12:36:01.940Z,20.70
2022-10-20T12:38:32.910Z,20.70
2022-10-20T12:41:02.794Z,20.63
2022-10-20T12:43:38.244Z,20.53
2022-10-20T12:46:10.597Z,20.55
2022-10-20T12:48:46.083Z,20.66
2022-10-20T12:51:25.331Z,20.56
2022-10-20T12:54:03.070Z,20.62
2022-10-20T12:56:38.214Z,20.61
2022-10-20T12:59:39.502Z,20.62
2022-10-20T13:02:51.048Z,20.61
2022-10-20T13:05:50.184Z,20.61
2022-10-20T13:08:37.832Z,20.65
2022-10-20T13:11:42.029Z,20.63
2022-10-20T13:14:29.035Z,20.57
2022-10-20T13:17:06.832Z,20.41
2022-10-20T13:19:40.364Z,20.42
2022-10-20T13:22:39.248Z,20.50
2022-10-20T13:25:15.929Z,20.62
2022-10-20T13:27:45.862Z,20.60
2022-10-20T13:30:21.899Z,20.60
2022-10-20T13:33:25.426Z,20.63
2022-10-20T13:35:57.198Z,20.45
2022-10-20T13:38:31.816Z,20.55
2022-10-20T13:41:10.530Z,20.55
2022-10-20T13:43:56.637Z,20.60
2022-10-20T13:46:41.327Z,20.54
2022-10-20T13:49:30.762Z,20.48
2022-10-20T13:52:04.697Z,20.41
2022-10-20T13:54:37.214Z,20.52
2022-10-20T13:57:07.076Z,20.47
2022-10-20T13:59:39.532Z,20.37
2022-10-20T14:02:25.780Z,20.33
2022-10-20T14:05:03.957Z,20.44
2022-10-20T14:07:38.129Z,20.42
2022-10-20T14:10:08.112Z,20.33
2022-10-20T14:12:36.635Z,20.35
2022-10-20T14:15:09.778Z,20.32
2022-10-20T14:17:40.716Z,20.41
2022-10-20T14:20:23.624Z,20.43
2022-10-20T14:22:54.288Z,20.38
2022-10-20T14:25:23.191Z,20.23
2022-10-20T14:27:53.665Z,20.13
2022-10-20T14:30:24.105Z,20.08
2022-10-20T14:32:53.056Z,20.09
2022-10-20T14:35:27.193Z,20.01
2022-10-20T14:37:59.754Z,19.98
2022-10-20T14:40:34.750Z,19.96
2022-10-20T14:45:34.397Z,19.85
2022-10-20T14:48:03.728Z,19.71
2022-10-20T14:50:36.835Z,19.63
2022-10-20T14:53:19.086Z,19.54
2022-10-20T14:55:47.241Z,19.47
2022-10-20T14:58:39.870Z,19.44
2022-10-20T15:01:31.531Z,19.35
2022-10-20T15:04:16.402Z,19.23
2022-10-20T15:06:45.540Z,19.13
2022-10-20T15:09:26.799Z,19.03
2022-10-20T15:11:54.999Z,18.92
2022-10-20T15:14:24.115Z,18.93
2022-10-20T15:16:54.092Z,18.89
2022-10-20T15:19:39.937Z,18.76
2022-10-20T15:24:49.009Z,18.56
2022-10-20T15:27:19.169Z,18.47
2022-10-20T15:29:51.136Z,18.38
2022-10-20T15:32:20.974Z,18.27
2022-10-20T15:34:49.389Z,18.19
2022-10-20T15:37:17.426Z,18.15
2022-10-20T15:39:45.686Z,18.11
2022-10-20T15:42:13.942Z,18.04
2022-10-20T15:44:42.106Z,17.92
2022-10-20T15:47:11.362Z,17.82
2022-10-20T15:49:40.966Z,17.73
2022-10-20T15:52:09.401Z,17.65
2022-10-20T15:54:37.490Z,17.67
2022-10-20T15:57:05.848Z,17.70
2022-10-20T15:59:33.966Z,17.57
2022-10-20T16:02:02.039Z,17.54
2022-10-20T16:04:31.824Z,17.59
2022-10-20T16:07:03.035Z,17.46
2022-10-20T16:09:31.393Z,17.49
2022-10-20T16:11:59.500Z,17.59
2022-10-20T16:14:27.698Z,17.59
2022-10-20T16:16:58.299Z,17.60
2022-10-20T16:19:26.573Z,17.53
2022-10-20T16:21:55.057Z,17.47
2022-10-20T16:24:24.923Z,17.39
2022-10-20T16:26:53.194Z,17.42
2022-10-20T16:29:21.634Z,17.31
2022-10-20T16:31:49.970Z,17.29
2022-10-20T16:34:20.551Z,17.24
2022-10-20T16:36:51.461Z,17.19
2022-10-20T16:39:20.033Z,17.15
2022-10-20T16:41:52.824Z,17.15
2022-10-20T16:44:22.027Z,17.17
2022-10-20T16:46:50.251Z,17.12
2022-10-20T16:49:19.433Z,17.03
2022-10-20T16:51:47.674Z,16.97
2022-10-20T16:54:16.055Z,16.88
2022-10-20T16:56:45.598Z,16.80
2022-10-20T16:59:15.274Z,16.66
2022-10-20T17:01:43.655Z,16.57
2022-10-20T17:04:18.880Z,16.48
2022-10-20T17:06:48.338Z,16.44
2022-10-20T17:09:16.968Z,16.32
2022-10-20T17:11:45.273Z,16.19
2022-10-20T17:14:14.883Z,16.08
2022-10-20T17:16:43.245Z,15.98
2022-10-20T17:19:12.619Z,15.89
2022-10-20T17:21:40.813Z,15.78
2022-10-20T17:24:13.709Z,15.67
2022-10-20T17:26:43.515Z,15.58
2022-10-20T17:29:11.894Z,15.50
2022-10-20T17:31:41.523Z,15.44
2022-10-20T17:34:10.513Z,15.36
2022-10-20T17:36:38.707Z,15.30
2022-10-20T17:39:08.780Z,15.27
2022-10-20T17:41:37.398Z,15.27
2022-10-20T17:44:08.945Z,15.28
2022-10-20T17:46:37.279Z,15.27
2022-10-20T17:49:07.494Z,15.23
2022-10-20T17:51:35.859Z,15.20
2022-10-20T17:54:05.020Z,15.13
2022-10-20T17:56:36.600Z,15.05
2022-10-20T17:59:07.766Z,15.00
2022-10-20T18:01:37.992Z,14.90
2022-10-20T18:04:10.350Z,14.84
2022-10-20T18:06:38.876Z,14.83
2022-10-20T18:09:11.005Z,14.76
2022-10-20T18:11:41.394Z,14.68
2022-10-20T18:14:09.819Z,14.61
2022-10-20T18:16:39.769Z,14.53
2022-10-20T18:19:10.191Z,14.47
2022-10-20T18:21:39.167Z,14.38
2022-10-20T18:24:09.774Z,14.30
2022-10-20T18:26:38.721Z,14.24
2022-10-20T18:29:08.994Z,14.19
2022-10-20T18:31:38.629Z,14.13
2022-10-20T18:34:10.761Z,14.08
2022-10-20T18:36:43.473Z,14.02
2022-10-20T18:39:16.149Z,13.99
2022-10-20T18:41:46.462Z,14.14
2022-10-20T18:44:16.270Z,14.18
2022-10-20T18:46:46.214Z,14.25
2022-10-20T18:49:19.745Z,14.26
2022-10-20T18:51:48.747Z,14.32
2022-10-20T18:54:18.157Z,14.41
2022-10-20T18:56:46.424Z,14.48
2022-10-20T18:59:17.265Z,14.43
2022-10-20T19:01:46.064Z,14.45
2022-10-20T19:04:16.347Z,14.44
2022-10-20T19:06:46.009Z,14.46
2022-10-20T19:09:16.975Z,14.44
2022-10-20T19:11:46.411Z,14.45
2022-10-20T19:14:15.426Z,14.35
2022-10-20T19:16:47.167Z,14.32
2022-10-20T19:19:16.874Z,14.20
2022-10-20T19:21:46.121Z,14.11
2022-10-20T19:24:17.453Z,14.01
2022-10-20T19:26:57.129Z,13.86
2022-10-20T19:29:36.353Z,13.86
2022-10-20T19:32:06.798Z,13.71
2022-10-20T19:34:39.412Z,13.64
2022-10-20T19:37:08.386Z,13.53
2022-10-20T19:39:39.037Z,13.50
2022-10-20T19:42:08.828Z,13.51
2022-10-20T19:44:37.719Z,13.33
2022-10-20T19:47:06.944Z,13.19
2022-10-20T19:49:37.913Z,13.18
2022-10-20T19:52:06.755Z,13.16
2022-10-20T19:54:36.182Z,13.13
2022-10-20T19:57:06.654Z,13.01
2022-10-20T19:59:35.016Z,12.99
2022-10-20T20:02:03.621Z,12.91
2022-10-20T20:04:35.065Z,12.85
2022-10-20T20:07:05.113Z,12.75
2022-10-20T20:09:34.025Z,12.69
2022-10-20T20:12:02.241Z,12.63
2022-10-20T20:14:30.357Z,12.46
2022-10-20T20:16:58.634Z,12.56
2022-10-20T20:19:26.882Z,12.50
2022-10-20T20:21:54.954Z,12.45
2022-10-20T20:24:24.775Z,12.36
2022-10-20T20:26:53.113Z,12.31
2022-10-20T20:29:21.189Z,12.35
2022-10-20T20:31:50.376Z,12.26
2022-10-20T20:34:18.695Z,12.14
2022-10-20T20:36:46.785Z,12.00
2022-10-20T20:39:14.818Z,11.92
2022-10-20T20:41:44.525Z,11.97
2022-10-20T20:44:12.629Z,11.85
2022-10-20T20:46:40.758Z,11.87
2022-10-20T20:49:08.867Z,11.83
2022-10-20T20:51:37.147Z,11.80
2022-10-20T20:54:05.416Z,11.70
2022-10-20T20:56:33.777Z,11.75
2022-10-20T20:59:03.385Z,11.67
2022-10-20T21:01:32.822Z,11.60
2022-10-20T21:04:04.086Z,11.62
2022-10-20T21:06:56.483Z,11.64
2022-10-20T21:09:22.828Z,11.58
2022-10-20T21:11:51.003Z,11.56
2022-10-20T21:14:20.540Z,11.56
2022-10-20T21:16:51.259Z,11.49
2022-10-20T21:19:20.254Z,11.47
2022-10-20T21:21:52.307Z,11.40
2022-10-20T21:24:20.566Z,11.35
2022-10-20T21:26:48.896Z,11.25
2022-10-20T21:29:18.607Z,11.08
2022-10-20T21:31:48.420Z,11.06
2022-10-20T21:34:16.675Z,10.96
2022-10-20T21:36:44.964Z,10.92
2022-10-20T21:39:15.972Z,10.96
2022-10-20T21:41:45.295Z,11.04
2022-10-20T21:44:15.620Z,11.15
2022-10-20T21:46:47.628Z,11.25
2022-10-20T21:49:19.902Z,11.22
2022-10-20T21:51:50.078Z,11.34
2022-10-20T21:56:54.721Z,11.43
2022-10-20T21:59:25.009Z,11.40
2022-10-20T22:01:54.796Z,11.36
2022-10-20T22:04:28.222Z,11.47
2022-10-20T22:06:56.681Z,11.48
2022-10-20T22:09:25.295Z,11.45
2022-10-20T22:11:56.862Z,11.38
2022-10-20T22:14:25.574Z,11.48
2022-10-20T22:16:55.723Z,11.41
2022-10-20T22:19:25.995Z,11.50
2022-10-20T22:21:54.825Z,11.35
2022-10-20T22:24:24.000Z,11.22
2022-10-20T22:26:53.188Z,11.15
2022-10-20T22:29:22.027Z,11.18
2022-10-20T22:31:51.295Z,11.11
2022-10-20T22:34:19.565Z,11.09
2022-10-20T22:36:49.001Z,11.07
2022-10-20T22:39:17.138Z,11.08
2022-10-20T22:41:45.326Z,11.05
2022-10-20T22:44:14.613Z,11.05
2022-10-20T22:46:42.702Z,10.97
2022-10-20T22:49:10.787Z,10.89
2022-10-20T22:51:38.888Z,10.88
2022-10-20T22:54:09.046Z,10.93
2022-10-20T22:56:37.196Z,10.91
2022-10-20T22:59:05.343Z,10.85
2022-10-20T23:01:33.410Z,10.80
2022-10-20T23:04:01.823Z,10.73
2022-10-20T23:06:29.922Z,10.74
2022-10-20T23:08:58.176Z,10.74
2022-10-20T23:11:27.761Z,10.76
2022-10-20T23:13:55.822Z,10.71
2022-10-20T23:18:58.168Z,10.58
2022-10-20T23:21:26.907Z,10.43
2022-10-20T23:23:54.962Z,10.38
2022-10-20T23:26:23.133Z,10.37
2022-10-20T23:28:53.291Z,10.41
2022-10-20T23:31:32.213Z,10.34
2022-10-20T23:34:00.327Z,10.29
2022-10-20T23:36:29.083Z,10.25
2022-10-20T23:38:57.335Z,10.28
2022-10-20T23:41:25.616Z,10.18
2022-10-20T23:43:55.088Z,10.12
2022-10-20T23:46:23.567Z,10.08
2022-10-20T23:48:51.981Z,10.00
2022-10-20T23:51:20.062Z,9.97
2022-10-20T23:53:48.127Z,9.95
2022-10-20T23:56:16.258Z,9.89
2022-10-20T23:58:44.516Z,9.83
